sensor_id;sensor_type;location;lat;lon;timestamp;P1;durP1;ratioP1;P2;durP2;ratioP2
72427;SDS011;60419;48.880;18.036;2022-11-15T00:01:24;53.80;;;28.55;;
72427;SDS011;60419;48.880;18.036;2022-11-15T00:04:10;57.78;;;28.55;;
72427;SDS011;60419;48.880;18.036;2022-11-15T00:06:55;48.85;;;26.45;;
72427;SDS011;60419;48.880;18.036;2022-11-15T00:09:40;49.78;;;26.75;;
72427;SDS011;60419;48.880;18.036;2022-11-15T00:12:27;47.00;;;26.85;;
72427;SDS011;60419;48.880;18.036;2022-11-15T00:15:13;51.78;;;28.02;;
72427;SDS011;60419;48.880;18.036;2022-11-15T00:17:58;50.47;;;27.77;;
72427;SDS011;60419;48.880;18.036;2022-11-15T00:20:44;48.13;;;26.70;;
72427;SDS011;60419;48.880;18.036;2022-11-15T00:23:29;49.78;;;26.13;;
72427;SDS011;60419;48.880;18.036;2022-11-15T00:26:15;47.53;;;26.92;;
72427;SDS011;60419;48.880;18.036;2022-11-15T00:29:00;48.35;;;27.20;;
72427;SDS011;60419;48.880;18.036;2022-11-15T00:31:45;53.28;;;29.17;;
72427;SDS011;60419;48.880;18.036;2022-11-15T00:34:31;45.60;;;26.45;;
72427;SDS011;60419;48.880;18.036;2022-11-15T00:37:16;45.75;;;25.95;;
72427;SDS011;60419;48.880;18.036;2022-11-15T00:40:01;48.83;;;27.90;;
72427;SDS011;60419;48.880;18.036;2022-11-15T00:42:47;47.53;;;26.92;;
72427;SDS011;60419;48.880;18.036;2022-11-15T00:45:32;52.60;;;29.05;;
72427;SDS011;60419;48.880;18.036;2022-11-15T00:48:18;55.80;;;29.58;;
72427;SDS011;60419;48.880;18.036;2022-11-15T00:51:03;55.65;;;30.45;;
72427;SDS011;60419;48.880;18.036;2022-11-15T00:53:48;59.72;;;30.77;;
72427;SDS011;60419;48.880;18.036;2022-11-15T00:56:34;58.97;;;30.55;;
72427;SDS011;60419;48.880;18.036;2022-11-15T00:59:19;49.78;;;28.30;;
72427;SDS011;60419;48.880;18.036;2022-11-15T01:02:04;54.72;;;30.92;;
72427;SDS011;60419;48.880;18.036;2022-11-15T01:04:50;66.75;;;34.60;;
72427;SDS011;60419;48.880;18.036;2022-11-15T01:07:35;63.80;;;34.13;;
72427;SDS011;60419;48.880;18.036;2022-11-15T01:10:21;67.82;;;35.33;;
72427;SDS011;60419;48.880;18.036;2022-11-15T01:13:07;64.57;;;33.28;;
72427;SDS011;60419;48.880;18.036;2022-11-15T01:15:53;68.03;;;33.30;;
72427;SDS011;60419;48.880;18.036;2022-11-15T01:18:38;67.78;;;35.38;;
72427;SDS011;60419;48.880;18.036;2022-11-15T01:21:24;72.60;;;35.20;;
72427;SDS011;60419;48.880;18.036;2022-11-15T01:24:13;61.63;;;32.65;;
72427;SDS011;60419;48.880;18.036;2022-11-15T01:26:58;62.00;;;31.67;;
72427;SDS011;60419;48.880;18.036;2022-11-15T01:29:43;61.00;;;32.47;;
72427;SDS011;60419;48.880;18.036;2022-11-15T01:32:29;58.30;;;33.25;;
72427;SDS011;60419;48.880;18.036;2022-11-15T01:35:14;61.15;;;32.20;;
72427;SDS011;60419;48.880;18.036;2022-11-15T01:37:59;64.07;;;34.35;;
72427;SDS011;60419;48.880;18.036;2022-11-15T01:40:45;64.78;;;33.88;;
72427;SDS011;60419;48.880;18.036;2022-11-15T01:43:34;61.92;;;33.13;;
72427;SDS011;60419;48.880;18.036;2022-11-15T01:49:18;71.85;;;36.75;;
72427;SDS011;60419;48.880;18.036;2022-11-15T01:52:07;77.00;;;38.50;;
72427;SDS011;60419;48.880;18.036;2022-11-15T01:54:59;98.80;;;40.42;;
72427;SDS011;60419;48.880;18.036;2022-11-15T01:58:04;194.25;;;47.03;;
72427;SDS011;60419;48.880;18.036;2022-11-15T02:00:51;136.60;;;44.97;;
72427;SDS011;60419;48.880;18.036;2022-11-15T02:03:41;110.32;;;47.10;;
72427;SDS011;60419;48.880;18.036;2022-11-15T02:06:34;94.78;;;41.38;;
72427;SDS011;60419;48.880;18.036;2022-11-15T02:09:20;72.53;;;38.88;;
72427;SDS011;60419;48.880;18.036;2022-11-15T02:12:06;72.47;;;38.22;;
72427;SDS011;60419;48.880;18.036;2022-11-15T02:14:53;131.13;;;44.05;;
72427;SDS011;60419;48.880;18.036;2022-11-15T02:36:05;59.27;;;30.97;;
72427;SDS011;60419;48.880;18.036;2022-11-15T02:42:00;56.50;;;30.60;;
72427;SDS011;60419;48.880;18.036;2022-11-15T02:47:37;60.28;;;33.17;;
72427;SDS011;60419;48.880;18.036;2022-11-15T02:50:28;59.53;;;32.58;;
72427;SDS011;60419;48.880;18.036;2022-11-15T02:53:16;59.45;;;33.05;;
72427;SDS011;60419;48.880;18.036;2022-11-15T02:56:01;58.10;;;31.50;;
72427;SDS011;60419;48.880;18.036;2022-11-15T02:59:09;62.78;;;33.75;;
72427;SDS011;60419;48.880;18.036;2022-11-15T03:02:23;67.68;;;33.70;;
72427;SDS011;60419;48.880;18.036;2022-11-15T03:11:46;71.13;;;35.15;;
72427;SDS011;60419;48.880;18.036;2022-11-15T03:14:39;61.03;;;33.35;;
72427;SDS011;60419;48.880;18.036;2022-11-15T03:17:49;59.65;;;31.65;;
72427;SDS011;60419;48.880;18.036;2022-11-15T03:20:50;58.97;;;31.20;;
72427;SDS011;60419;48.880;18.036;2022-11-15T03:23:36;52.47;;;31.05;;
72427;SDS011;60419;48.880;18.036;2022-11-15T03:26:23;49.65;;;31.27;;
72427;SDS011;60419;48.880;18.036;2022-11-15T03:29:52;44.85;;;26.77;;
72427;SDS011;60419;48.880;18.036;2022-11-15T03:32:26;44.10;;;25.55;;
72427;SDS011;60419;48.880;18.036;2022-11-15T03:35:17;46.72;;;28.33;;
72427;SDS011;60419;48.880;18.036;2022-11-15T03:41:00;49.00;;;29.02;;
72427;SDS011;60419;48.880;18.036;2022-11-15T03:43:53;40.22;;;23.30;;
72427;SDS011;60419;48.880;18.036;2022-11-15T03:46:53;44.50;;;24.40;;
72427;SDS011;60419;48.880;18.036;2022-11-15T03:49:52;41.63;;;26.40;;
72427;SDS011;60419;48.880;18.036;2022-11-15T03:52:42;51.25;;;30.20;;
72427;SDS011;60419;48.880;18.036;2022-11-15T03:55:31;42.90;;;25.35;;
72427;SDS011;60419;48.880;18.036;2022-11-15T03:58:17;42.15;;;25.52;;
72427;SDS011;60419;48.880;18.036;2022-11-15T04:01:02;42.67;;;25.88;;
72427;SDS011;60419;48.880;18.036;2022-11-15T04:03:47;41.80;;;26.17;;
72427;SDS011;60419;48.880;18.036;2022-11-15T04:06:34;50.05;;;27.92;;
72427;SDS011;60419;48.880;18.036;2022-11-15T04:09:19;44.70;;;25.63;;
72427;SDS011;60419;48.880;18.036;2022-11-15T04:12:05;43.53;;;26.65;;
72427;SDS011;60419;48.880;18.036;2022-11-15T04:14:50;46.10;;;27.33;;
72427;SDS011;60419;48.880;18.036;2022-11-15T04:17:53;45.53;;;26.95;;
72427;SDS011;60419;48.880;18.036;2022-11-15T04:20:39;47.90;;;27.50;;
72427;SDS011;60419;48.880;18.036;2022-11-15T04:23:43;46.22;;;25.70;;
72427;SDS011;60419;48.880;18.036;2022-11-15T04:26:47;41.83;;;25.52;;
72427;SDS011;60419;48.880;18.036;2022-11-15T04:29:32;49.25;;;28.65;;
72427;SDS011;60419;48.880;18.036;2022-11-15T04:32:21;48.10;;;27.90;;
72427;SDS011;60419;48.880;18.036;2022-11-15T04:35:06;47.88;;;28.10;;
72427;SDS011;60419;48.880;18.036;2022-11-15T04:37:52;44.60;;;26.63;;
72427;SDS011;60419;48.880;18.036;2022-11-15T04:40:38;47.60;;;27.98;;
72427;SDS011;60419;48.880;18.036;2022-11-15T04:43:23;44.47;;;26.30;;
72427;SDS011;60419;48.880;18.036;2022-11-15T04:46:08;42.85;;;25.83;;
72427;SDS011;60419;48.880;18.036;2022-11-15T04:48:54;40.20;;;25.08;;
72427;SDS011;60419;48.880;18.036;2022-11-15T04:51:39;42.88;;;26.63;;
72427;SDS011;60419;48.880;18.036;2022-11-15T04:54:25;45.50;;;26.40;;
72427;SDS011;60419;48.880;18.036;2022-11-15T04:57:10;42.10;;;26.23;;
72427;SDS011;60419;48.880;18.036;2022-11-15T04:59:56;40.67;;;25.23;;
72427;SDS011;60419;48.880;18.036;2022-11-15T05:02:41;41.70;;;25.77;;
72427;SDS011;60419;48.880;18.036;2022-11-15T05:05:46;42.03;;;25.30;;
72427;SDS011;60419;48.880;18.036;2022-11-15T05:08:32;47.42;;;26.83;;
72427;SDS011;60419;48.880;18.036;2022-11-15T05:11:17;40.22;;;25.50;;
72427;SDS011;60419;48.880;18.036;2022-11-15T05:14:02;41.92;;;24.95;;
72427;SDS011;60419;48.880;18.036;2022-11-15T05:16:48;39.28;;;23.95;;
72427;SDS011;60419;48.880;18.036;2022-11-15T05:19:33;38.40;;;23.95;;
72427;SDS011;60419;48.880;18.036;2022-11-15T05:22:19;41.10;;;23.45;;
72427;SDS011;60419;48.880;18.036;2022-11-15T05:25:05;37.80;;;23.25;;
72427;SDS011;60419;48.880;18.036;2022-11-15T05:27:51;39.97;;;23.33;;
72427;SDS011;60419;48.880;18.036;2022-11-15T05:30:36;44.88;;;24.75;;
72427;SDS011;60419;48.880;18.036;2022-11-15T05:33:22;37.55;;;22.98;;
72427;SDS011;60419;48.880;18.036;2022-11-15T05:39:23;40.35;;;22.02;;
72427;SDS011;60419;48.880;18.036;2022-11-15T05:42:14;39.50;;;22.13;;
72427;SDS011;60419;48.880;18.036;2022-11-15T05:45:01;36.33;;;22.92;;
72427;SDS011;60419;48.880;18.036;2022-11-15T05:47:49;35.42;;;22.08;;
72427;SDS011;60419;48.880;18.036;2022-11-15T05:50:35;40.38;;;22.83;;
72427;SDS011;60419;48.880;18.036;2022-11-15T05:53:23;32.75;;;20.90;;
72427;SDS011;60419;48.880;18.036;2022-11-15T05:56:10;34.70;;;20.88;;
72427;SDS011;60419;48.880;18.036;2022-11-15T05:58:56;37.33;;;22.15;;
72427;SDS011;60419;48.880;18.036;2022-11-15T06:01:42;35.08;;;21.40;;
72427;SDS011;60419;48.880;18.036;2022-11-15T06:04:28;38.92;;;23.05;;
72427;SDS011;60419;48.880;18.036;2022-11-15T06:07:13;39.45;;;23.05;;
72427;SDS011;60419;48.880;18.036;2022-11-15T06:09:58;40.70;;;24.00;;
72427;SDS011;60419;48.880;18.036;2022-11-15T06:12:44;44.08;;;22.95;;
72427;SDS011;60419;48.880;18.036;2022-11-15T06:15:29;57.42;;;32.17;;
72427;SDS011;60419;48.880;18.036;2022-11-15T06:18:14;44.00;;;25.83;;
72427;SDS011;60419;48.880;18.036;2022-11-15T06:21:00;38.72;;;23.48;;
72427;SDS011;60419;48.880;18.036;2022-11-15T06:23:46;44.47;;;25.05;;
72427;SDS011;60419;48.880;18.036;2022-11-15T06:26:31;37.97;;;22.15;;
72427;SDS011;60419;48.880;18.036;2022-11-15T06:29:18;39.40;;;22.00;;
72427;SDS011;60419;48.880;18.036;2022-11-15T06:32:03;42.55;;;23.15;;
72427;SDS011;60419;48.880;18.036;2022-11-15T06:34:49;43.78;;;23.08;;
72427;SDS011;60419;48.880;18.036;2022-11-15T06:37:34;38.47;;;23.00;;
72427;SDS011;60419;48.880;18.036;2022-11-15T06:40:20;37.33;;;22.25;;
72427;SDS011;60419;48.880;18.036;2022-11-15T06:43:05;36.38;;;21.90;;
72427;SDS011;60419;48.880;18.036;2022-11-15T06:45:51;40.58;;;23.27;;
72427;SDS011;60419;48.880;18.036;2022-11-15T06:48:36;35.25;;;22.15;;
72427;SDS011;60419;48.880;18.036;2022-11-15T06:51:22;37.78;;;22.27;;
72427;SDS011;60419;48.880;18.036;2022-11-15T06:54:07;40.15;;;23.08;;
72427;SDS011;60419;48.880;18.036;2022-11-15T06:56:52;41.78;;;23.63;;
72427;SDS011;60419;48.880;18.036;2022-11-15T06:59:38;40.30;;;22.70;;
72427;SDS011;60419;48.880;18.036;2022-11-15T07:02:23;36.00;;;21.48;;
72427;SDS011;60419;48.880;18.036;2022-11-15T07:05:09;33.60;;;20.70;;
72427;SDS011;60419;48.880;18.036;2022-11-15T07:07:55;35.38;;;21.35;;
72427;SDS011;60419;48.880;18.036;2022-11-15T07:10:41;36.97;;;21.95;;
72427;SDS011;60419;48.880;18.036;2022-11-15T07:13:27;37.85;;;22.67;;
72427;SDS011;60419;48.880;18.036;2022-11-15T07:16:13;39.25;;;22.70;;
72427;SDS011;60419;48.880;18.036;2022-11-15T07:18:58;38.80;;;22.35;;
72427;SDS011;60419;48.880;18.036;2022-11-15T07:21:44;37.13;;;21.05;;
72427;SDS011;60419;48.880;18.036;2022-11-15T07:24:29;35.53;;;21.52;;
72427;SDS011;60419;48.880;18.036;2022-11-15T07:27:15;35.50;;;21.75;;
72427;SDS011;60419;48.880;18.036;2022-11-15T07:30:00;38.50;;;22.55;;
72427;SDS011;60419;48.880;18.036;2022-11-15T07:32:46;34.85;;;21.17;;
72427;SDS011;60419;48.880;18.036;2022-11-15T07:35:31;34.92;;;21.15;;
72427;SDS011;60419;48.880;18.036;2022-11-15T07:38:17;38.85;;;21.45;;
72427;SDS011;60419;48.880;18.036;2022-11-15T07:41:05;37.33;;;22.13;;
72427;SDS011;60419;48.880;18.036;2022-11-15T07:43:51;37.42;;;21.40;;
72427;SDS011;60419;48.880;18.036;2022-11-15T07:46:37;39.25;;;21.95;;
72427;SDS011;60419;48.880;18.036;2022-11-15T07:49:22;37.53;;;21.65;;
72427;SDS011;60419;48.880;18.036;2022-11-15T07:52:08;38.75;;;21.92;;
72427;SDS011;60419;48.880;18.036;2022-11-15T07:54:53;37.00;;;23.00;;
72427;SDS011;60419;48.880;18.036;2022-11-15T07:57:39;36.90;;;22.05;;
72427;SDS011;60419;48.880;18.036;2022-11-15T08:00:24;39.80;;;22.25;;
72427;SDS011;60419;48.880;18.036;2022-11-15T08:03:14;35.03;;;20.20;;
72427;SDS011;60419;48.880;18.036;2022-11-15T08:08:46;37.03;;;21.17;;
72427;SDS011;60419;48.880;18.036;2022-11-15T08:11:32;37.35;;;20.88;;
72427;SDS011;60419;48.880;18.036;2022-11-15T08:14:17;38.15;;;20.90;;
72427;SDS011;60419;48.880;18.036;2022-11-15T08:17:03;34.78;;;20.40;;
72427;SDS011;60419;48.880;18.036;2022-11-15T08:19:48;33.05;;;20.40;;
72427;SDS011;60419;48.880;18.036;2022-11-15T08:22:33;38.95;;;21.42;;
72427;SDS011;60419;48.880;18.036;2022-11-15T08:25:19;40.55;;;21.88;;
72427;SDS011;60419;48.880;18.036;2022-11-15T08:28:06;39.47;;;21.95;;
72427;SDS011;60419;48.880;18.036;2022-11-15T08:30:52;37.50;;;22.85;;
72427;SDS011;60419;48.880;18.036;2022-11-15T08:33:38;36.13;;;22.38;;
72427;SDS011;60419;48.880;18.036;2022-11-15T08:36:23;38.33;;;23.08;;
72427;SDS011;60419;48.880;18.036;2022-11-15T08:39:11;36.80;;;21.40;;
72427;SDS011;60419;48.880;18.036;2022-11-15T08:41:57;36.95;;;20.70;;
72427;SDS011;60419;48.880;18.036;2022-11-15T08:44:43;38.22;;;20.13;;
72427;SDS011;60419;48.880;18.036;2022-11-15T08:47:29;34.33;;;20.52;;
72427;SDS011;60419;48.880;18.036;2022-11-15T08:50:15;33.47;;;20.08;;
72427;SDS011;60419;48.880;18.036;2022-11-15T08:53:07;37.33;;;19.65;;
72427;SDS011;60419;48.880;18.036;2022-11-15T08:55:53;35.08;;;19.98;;
72427;SDS011;60419;48.880;18.036;2022-11-15T08:58:39;38.50;;;19.95;;
72427;SDS011;60419;48.880;18.036;2022-11-15T09:01:24;39.60;;;20.27;;
72427;SDS011;60419;48.880;18.036;2022-11-15T09:04:10;36.10;;;19.23;;
72427;SDS011;60419;48.880;18.036;2022-11-15T09:06:55;33.95;;;18.73;;
72427;SDS011;60419;48.880;18.036;2022-11-15T09:09:41;34.10;;;18.52;;
72427;SDS011;60419;48.880;18.036;2022-11-15T09:12:26;33.05;;;19.23;;
72427;SDS011;60419;48.880;18.036;2022-11-15T09:15:12;30.30;;;17.90;;
72427;SDS011;60419;48.880;18.036;2022-11-15T09:17:58;36.53;;;19.83;;
72427;SDS011;60419;48.880;18.036;2022-11-15T09:20:44;33.05;;;19.13;;
72427;SDS011;60419;48.880;18.036;2022-11-15T09:23:29;31.17;;;19.10;;
72427;SDS011;60419;48.880;18.036;2022-11-15T09:26:15;32.95;;;18.83;;
72427;SDS011;60419;48.880;18.036;2022-11-15T09:29:00;35.10;;;18.52;;
72427;SDS011;60419;48.880;18.036;2022-11-15T09:31:46;32.88;;;19.20;;
72427;SDS011;60419;48.880;18.036;2022-11-15T09:34:32;35.67;;;19.33;;
72427;SDS011;60419;48.880;18.036;2022-11-15T09:37:17;37.65;;;21.00;;
72427;SDS011;60419;48.880;18.036;2022-11-15T09:40:03;37.15;;;20.15;;
72427;SDS011;60419;48.880;18.036;2022-11-15T09:49:23;34.92;;;17.67;;
72427;SDS011;60419;48.880;18.036;2022-11-15T09:52:09;30.00;;;18.63;;
72427;SDS011;60419;48.880;18.036;2022-11-15T09:54:56;28.83;;;18.20;;
72427;SDS011;60419;48.880;18.036;2022-11-15T09:57:46;29.67;;;17.35;;
72427;SDS011;60419;48.880;18.036;2022-11-15T10:00:43;31.63;;;17.45;;
72427;SDS011;60419;48.880;18.036;2022-11-15T10:03:34;32.15;;;18.33;;
72427;SDS011;60419;48.880;18.036;2022-11-15T10:06:24;32.53;;;18.67;;
72427;SDS011;60419;48.880;18.036;2022-11-15T10:09:19;35.53;;;18.83;;
72427;SDS011;60419;48.880;18.036;2022-11-15T10:12:11;33.70;;;18.15;;
72427;SDS011;60419;48.880;18.036;2022-11-15T10:15:01;33.22;;;18.40;;
72427;SDS011;60419;48.880;18.036;2022-11-15T10:18:13;33.95;;;18.60;;
72427;SDS011;60419;48.880;18.036;2022-11-15T10:21:29;35.55;;;19.08;;
72427;SDS011;60419;48.880;18.036;2022-11-15T10:24:18;35.55;;;19.35;;
72427;SDS011;60419;48.880;18.036;2022-11-15T10:29:58;31.08;;;18.58;;
72427;SDS011;60419;48.880;18.036;2022-11-15T10:32:44;34.10;;;19.10;;
72427;SDS011;60419;48.880;18.036;2022-11-15T10:35:31;35.30;;;19.13;;
72427;SDS011;60419;48.880;18.036;2022-11-15T10:38:16;32.42;;;19.65;;
72427;SDS011;60419;48.880;18.036;2022-11-15T10:41:06;33.05;;;19.63;;
72427;SDS011;60419;48.880;18.036;2022-11-15T10:47:05;36.28;;;20.55;;
72427;SDS011;60419;48.880;18.036;2022-11-15T10:50:38;31.85;;;19.05;;
72427;SDS011;60419;48.880;18.036;2022-11-15T10:56:12;38.20;;;20.55;;
72427;SDS011;60419;48.880;18.036;2022-11-15T10:59:00;33.85;;;18.98;;
72427;SDS011;60419;48.880;18.036;2022-11-15T11:01:46;36.08;;;19.45;;
72427;SDS011;60419;48.880;18.036;2022-11-15T11:04:44;32.78;;;19.02;;
72427;SDS011;60419;48.880;18.036;2022-11-15T11:07:35;40.58;;;20.73;;
72427;SDS011;60419;48.880;18.036;2022-11-15T11:10:21;35.67;;;20.65;;
72427;SDS011;60419;48.880;18.036;2022-11-15T11:13:28;35.50;;;19.67;;
72427;SDS011;60419;48.880;18.036;2022-11-15T11:19:13;36.17;;;20.63;;
72427;SDS011;60419;48.880;18.036;2022-11-15T11:22:05;37.20;;;19.80;;
72427;SDS011;60419;48.880;18.036;2022-11-15T11:31:34;32.08;;;19.25;;
72427;SDS011;60419;48.880;18.036;2022-11-15T11:40:43;30.30;;;18.00;;
72427;SDS011;60419;48.880;18.036;2022-11-15T11:43:37;29.20;;;17.83;;
72427;SDS011;60419;48.880;18.036;2022-11-15T11:49:34;30.65;;;18.92;;
72427;SDS011;60419;48.880;18.036;2022-11-15T11:52:23;30.67;;;18.65;;
72427;SDS011;60419;48.880;18.036;2022-11-15T11:58:34;28.08;;;17.52;;
72427;SDS011;60419;48.880;18.036;2022-11-15T12:04:27;30.65;;;16.35;;
72427;SDS011;60419;48.880;18.036;2022-11-15T12:07:25;28.05;;;15.05;;
72427;SDS011;60419;48.880;18.036;2022-11-15T12:13:19;23.92;;;15.55;;
72427;SDS011;60419;48.880;18.036;2022-11-15T12:16:22;31.75;;;16.52;;
72427;SDS011;60419;48.880;18.036;2022-11-15T12:19:13;27.98;;;16.48;;
72427;SDS011;60419;48.880;18.036;2022-11-15T12:22:00;27.33;;;17.15;;
72427;SDS011;60419;48.880;18.036;2022-11-15T12:28:07;27.10;;;16.50;;
72427;SDS011;60419;48.880;18.036;2022-11-15T12:31:13;30.08;;;16.73;;
72427;SDS011;60419;48.880;18.036;2022-11-15T12:38:08;28.38;;;16.55;;
72427;SDS011;60419;48.880;18.036;2022-11-15T12:40:35;27.25;;;15.82;;
72427;SDS011;60419;48.880;18.036;2022-11-15T12:43:37;24.20;;;15.00;;
72427;SDS011;60419;48.880;18.036;2022-11-15T12:52:08;25.67;;;14.63;;
72427;SDS011;60419;48.880;18.036;2022-11-15T12:54:55;22.83;;;15.20;;
72427;SDS011;60419;48.880;18.036;2022-11-15T12:57:42;23.63;;;15.43;;
72427;SDS011;60419;48.880;18.036;2022-11-15T13:03:17;26.00;;;14.85;;
72427;SDS011;60419;48.880;18.036;2022-11-15T13:06:05;28.75;;;15.88;;
72427;SDS011;60419;48.880;18.036;2022-11-15T13:08:52;28.67;;;16.60;;
72427;SDS011;60419;48.880;18.036;2022-11-15T13:11:45;27.52;;;16.33;;
72427;SDS011;60419;48.880;18.036;2022-11-15T13:17:43;37.33;;;17.90;;
72427;SDS011;60419;48.880;18.036;2022-11-15T13:20:30;27.67;;;16.95;;
72427;SDS011;60419;48.880;18.036;2022-11-15T13:23:17;28.42;;;17.40;;
72427;SDS011;60419;48.880;18.036;2022-11-15T13:26:15;30.00;;;17.27;;
72427;SDS011;60419;48.880;18.036;2022-11-15T13:29:12;30.10;;;17.45;;
72427;SDS011;60419;48.880;18.036;2022-11-15T13:32:00;34.40;;;19.50;;
72427;SDS011;60419;48.880;18.036;2022-11-15T13:34:47;28.67;;;18.33;;
72427;SDS011;60419;48.880;18.036;2022-11-15T13:37:34;28.25;;;16.73;;
72427;SDS011;60419;48.880;18.036;2022-11-15T13:40:25;28.17;;;17.15;;
72427;SDS011;60419;48.880;18.036;2022-11-15T13:43:28;29.35;;;18.27;;
72427;SDS011;60419;48.880;18.036;2022-11-15T13:46:17;30.80;;;19.13;;
72427;SDS011;60419;48.880;18.036;2022-11-15T13:49:12;30.58;;;17.48;;
72427;SDS011;60419;48.880;18.036;2022-11-15T13:51:57;32.90;;;18.05;;
72427;SDS011;60419;48.880;18.036;2022-11-15T13:55:08;31.05;;;17.52;;
72427;SDS011;60419;48.880;18.036;2022-11-15T13:57:58;32.42;;;18.05;;
72427;SDS011;60419;48.880;18.036;2022-11-15T14:00:58;28.70;;;17.90;;
72427;SDS011;60419;48.880;18.036;2022-11-15T14:03:47;32.13;;;17.83;;
72427;SDS011;60419;48.880;18.036;2022-11-15T14:06:42;29.67;;;17.83;;
72427;SDS011;60419;48.880;18.036;2022-11-15T14:21:33;31.88;;;19.70;;
72427;SDS011;60419;48.880;18.036;2022-11-15T14:24:20;33.28;;;18.98;;
72427;SDS011;60419;48.880;18.036;2022-11-15T14:30:25;27.60;;;16.88;;
72427;SDS011;60419;48.880;18.036;2022-11-15T14:33:52;29.55;;;17.48;;
72427;SDS011;60419;48.880;18.036;2022-11-15T14:36:20;28.95;;;17.90;;
72427;SDS011;60419;48.880;18.036;2022-11-15T14:39:06;28.70;;;17.02;;
72427;SDS011;60419;48.880;18.036;2022-11-15T14:41:52;25.33;;;15.55;;
72427;SDS011;60419;48.880;18.036;2022-11-15T14:44:37;26.60;;;16.85;;
72427;SDS011;60419;48.880;18.036;2022-11-15T14:47:23;30.88;;;19.00;;
72427;SDS011;60419;48.880;18.036;2022-11-15T14:50:12;33.40;;;18.30;;
72427;SDS011;60419;48.880;18.036;2022-11-15T14:53:02;30.58;;;18.10;;
72427;SDS011;60419;48.880;18.036;2022-11-15T14:55:48;33.13;;;18.02;;
72427;SDS011;60419;48.880;18.036;2022-11-15T14:58:34;26.33;;;15.65;;
72427;SDS011;60419;48.880;18.036;2022-11-15T15:01:26;22.42;;;14.80;;
72427;SDS011;60419;48.880;18.036;2022-11-15T15:04:11;26.23;;;16.33;;
72427;SDS011;60419;48.880;18.036;2022-11-15T15:06:56;25.83;;;15.18;;
72427;SDS011;60419;48.880;18.036;2022-11-15T15:09:42;25.33;;;15.95;;
72427;SDS011;60419;48.880;18.036;2022-11-15T15:12:27;24.33;;;15.20;;
72427;SDS011;60419;48.880;18.036;2022-11-15T15:15:15;26.20;;;15.48;;
72427;SDS011;60419;48.880;18.036;2022-11-15T15:18:03;30.95;;;17.95;;
72427;SDS011;60419;48.880;18.036;2022-11-15T15:20:56;33.60;;;19.67;;
72427;SDS011;60419;48.880;18.036;2022-11-15T15:23:52;36.72;;;20.88;;
72427;SDS011;60419;48.880;18.036;2022-11-15T15:26:40;36.95;;;21.25;;
72427;SDS011;60419;48.880;18.036;2022-11-15T15:29:25;36.55;;;20.30;;
72427;SDS011;60419;48.880;18.036;2022-11-15T15:32:11;33.80;;;18.77;;
72427;SDS011;60419;48.880;18.036;2022-11-15T15:34:58;39.15;;;21.88;;
72427;SDS011;60419;48.880;18.036;2022-11-15T15:37:44;43.08;;;25.67;;
72427;SDS011;60419;48.880;18.036;2022-11-15T15:40:32;36.45;;;21.95;;
72427;SDS011;60419;48.880;18.036;2022-11-15T15:43:18;36.25;;;22.02;;
72427;SDS011;60419;48.880;18.036;2022-11-15T15:46:03;37.60;;;22.80;;
72427;SDS011;60419;48.880;18.036;2022-11-15T15:48:49;37.75;;;23.50;;
72427;SDS011;60419;48.880;18.036;2022-11-15T15:51:35;34.30;;;21.58;;
72427;SDS011;60419;48.880;18.036;2022-11-15T15:54:20;35.30;;;21.40;;
72427;SDS011;60419;48.880;18.036;2022-11-15T15:57:06;37.35;;;21.45;;
72427;SDS011;60419;48.880;18.036;2022-11-15T15:59:53;34.55;;;21.38;;
72427;SDS011;60419;48.880;18.036;2022-11-15T16:02:39;35.38;;;20.88;;
72427;SDS011;60419;48.880;18.036;2022-11-15T16:05:25;35.13;;;22.23;;
72427;SDS011;60419;48.880;18.036;2022-11-15T16:08:20;37.13;;;22.52;;
72427;SDS011;60419;48.880;18.036;2022-11-15T16:11:07;36.53;;;20.63;;
72427;SDS011;60419;48.880;18.036;2022-11-15T16:13:54;33.63;;;20.13;;
72427;SDS011;60419;48.880;18.036;2022-11-15T16:16:39;37.22;;;21.80;;
72427;SDS011;60419;48.880;18.036;2022-11-15T16:19:25;35.67;;;22.48;;
72427;SDS011;60419;48.880;18.036;2022-11-15T16:22:10;33.67;;;21.52;;
72427;SDS011;60419;48.880;18.036;2022-11-15T16:24:56;29.08;;;18.23;;
72427;SDS011;60419;48.880;18.036;2022-11-15T16:27:41;35.10;;;18.52;;
72427;SDS011;60419;48.880;18.036;2022-11-15T16:30:29;31.88;;;19.60;;
72427;SDS011;60419;48.880;18.036;2022-11-15T16:33:15;30.20;;;18.17;;
72427;SDS011;60419;48.880;18.036;2022-11-15T16:36:03;32.20;;;19.05;;
72427;SDS011;60419;48.880;18.036;2022-11-15T16:38:50;33.40;;;20.52;;
72427;SDS011;60419;48.880;18.036;2022-11-15T16:41:35;30.10;;;19.17;;
72427;SDS011;60419;48.880;18.036;2022-11-15T16:44:20;31.33;;;19.42;;
72427;SDS011;60419;48.880;18.036;2022-11-15T16:47:25;33.95;;;20.13;;
72427;SDS011;60419;48.880;18.036;2022-11-15T16:50:21;34.17;;;20.05;;
72427;SDS011;60419;48.880;18.036;2022-11-15T16:53:09;36.80;;;21.10;;
72427;SDS011;60419;48.880;18.036;2022-11-15T16:55:55;34.33;;;19.08;;
72427;SDS011;60419;48.880;18.036;2022-11-15T16:58:40;35.13;;;19.63;;
72427;SDS011;60419;48.880;18.036;2022-11-15T17:01:26;30.65;;;19.27;;
72427;SDS011;60419;48.880;18.036;2022-11-15T17:04:15;33.25;;;19.60;;
72427;SDS011;60419;48.880;18.036;2022-11-15T17:07:02;33.00;;;20.05;;
72427;SDS011;60419;48.880;18.036;2022-11-15T17:09:47;32.35;;;19.70;;
72427;SDS011;60419;48.880;18.036;2022-11-15T17:12:33;29.35;;;18.33;;
72427;SDS011;60419;48.880;18.036;2022-11-15T17:15:20;31.17;;;18.38;;
72427;SDS011;60419;48.880;18.036;2022-11-15T17:18:06;34.60;;;19.85;;
72427;SDS011;60419;48.880;18.036;2022-11-15T17:20:53;34.45;;;20.08;;
72427;SDS011;60419;48.880;18.036;2022-11-15T17:23:38;29.05;;;18.63;;
72427;SDS011;60419;48.880;18.036;2022-11-15T17:26:24;28.48;;;19.80;;
72427;SDS011;60419;48.880;18.036;2022-11-15T17:29:09;34.55;;;18.75;;
72427;SDS011;60419;48.880;18.036;2022-11-15T17:31:55;28.15;;;17.90;;
72427;SDS011;60419;48.880;18.036;2022-11-15T17:34:40;28.17;;;16.75;;
72427;SDS011;60419;48.880;18.036;2022-11-15T17:37:25;28.38;;;17.75;;
72427;SDS011;60419;48.880;18.036;2022-11-15T17:40:11;27.02;;;17.13;;
72427;SDS011;60419;48.880;18.036;2022-11-15T17:42:56;32.22;;;18.35;;
72427;SDS011;60419;48.880;18.036;2022-11-15T17:45:41;26.23;;;17.70;;
72427;SDS011;60419;48.880;18.036;2022-11-15T17:48:27;29.13;;;16.73;;
72427;SDS011;60419;48.880;18.036;2022-11-15T17:51:14;26.17;;;16.42;;
72427;SDS011;60419;48.880;18.036;2022-11-15T17:54:01;28.83;;;16.88;;
72427;SDS011;60419;48.880;18.036;2022-11-15T17:56:47;27.05;;;17.38;;
72427;SDS011;60419;48.880;18.036;2022-11-15T17:59:32;26.80;;;16.23;;
72427;SDS011;60419;48.880;18.036;2022-11-15T18:02:18;26.35;;;15.90;;
72427;SDS011;60419;48.880;18.036;2022-11-15T18:05:03;29.13;;;15.45;;
72427;SDS011;60419;48.880;18.036;2022-11-15T18:07:49;25.73;;;16.35;;
72427;SDS011;60419;48.880;18.036;2022-11-15T18:10:34;28.83;;;15.90;;